Terminal Aerodrome Forecast
Issued by NWS

Home | Current Version | Previous Version | Text Only | Print | Product List | Glossary On
Versions: 1 2 3 4 5 6 7 8 9 10 11 12
545
FTUS42 TJSJ 111738
TAFISX
TAF
TISX 111738Z 1118/1218 11014KT P6SM FEW025
     FM112300 07008KT P6SM FEW025
     FM121300 11012KT P6SM FEW025 SCT050=

USA.gov is the U.S. government's official web portal to all federal, state and local government web resources and services.